Time;durP1;ratioP1;P1;durP2;ratioP2;P2;SDS_P1;SDS_P2;PMS_P1;PMS_P2;Temp;Humidity;BMP_temperature;BMP_pressure;BME280_temperature;BME280_humidity;BME280_pressure;Samples;Min_cycle;Max_cycle;Signal;HPM_P1;HPM_P2
2021/06/25 00:00:13;;;;;;;19.73;17.73;;;;;;;;;;5116102;28;20450;-64
2021/06/25 00:02:40;;;;;;;24.50;19.50;;;;;;;;;;5116355;28;20535;-64
2021/06/25 00:05:09;;;;;;;22.53;18.73;;;;;;;;;;5116361;28;20439;-64
2021/06/25 00:07:36;;;;;;;21.53;19.50;;;;;;;;;;5116030;28;20936;-64
2021/06/25 00:10:04;;;;;;;22.90;17.80;;;;;;;;;;5116287;28;20502;-64
2021/06/25 00:12:33;;;;;;;21.93;18.60;;;;;;;;;;5116403;28;20525;-64
2021/06/25 00:15:00;;;;;;;22.77;19.93;;;;;;;;;;5115846;28;20925;-64
2021/06/25 00:17:27;;;;;;;20.87;18.23;;;;;;;;;;5115961;28;20966;-64
2021/06/25 00:19:54;;;;;;;19.50;17.50;;;;;;;;;;5116080;28;20442;-64
2021/06/25 00:22:23;;;;;;;21.70;19.43;;;;;;;;;;5115757;28;20439;-64
2021/06/25 00:24:50;;;;;;;24.70;20.47;;;;;;;;;;5115690;28;20949;-64
2021/06/25 00:27:18;;;;;;;21.53;19.20;;;;;;;;;;5116332;28;20525;-66
2021/06/25 00:29:46;;;;;;;21.97;19.63;;;;;;;;;;5115888;28;20475;-64
2021/06/25 00:32:13;;;;;;;22.73;20.33;;;;;;;;;;5114539;28;20903;-64
2021/06/25 00:34:41;;;;;;;21.60;19.30;;;;;;;;;;5115935;28;20474;-65
2021/06/25 00:37:08;;;;;;;22.47;20.27;;;;;;;;;;5115925;28;20440;-65
2021/06/25 00:39:35;;;;;;;23.13;20.03;;;;;;;;;;5115833;28;20542;-64
2021/06/25 00:42:02;;;;;;;21.87;19.53;;;;;;;;;;5115616;28;20803;-65
2021/06/25 00:44:29;;;;;;;23.57;20.37;;;;;;;;;;5115677;28;20439;-65
2021/06/25 00:46:58;;;;;;;23.23;20.67;;;;;;;;;;5115536;28;20530;-65
2021/06/25 00:49:26;;;;;;;22.77;20.30;;;;;;;;;;5115655;28;20474;-65
2021/06/25 00:51:53;;;;;;;24.23;21.10;;;;;;;;;;5115471;28;20538;-65
2021/06/25 00:54:20;;;;;;;24.87;21.00;;;;;;;;;;5115678;28;20435;-65
2021/06/25 00:56:47;;;;;;;25.07;22.43;;;;;;;;;;5115512;28;20439;-64
2021/06/25 00:59:14;;;;;;;21.87;19.03;;;;;;;;;;5114986;28;20962;-65
2021/06/25 01:01:41;;;;;;;23.30;20.07;;;;;;;;;;5115280;28;20439;-65
2021/06/25 01:04:10;;;;;;;25.67;22.97;;;;;;;;;;5114858;28;20445;-65
2021/06/25 01:06:38;;;;;;;21.50;19.40;;;;;;;;;;5115121;28;20441;-65
2021/06/25 01:09:08;;;;;;;23.00;20.50;;;;;;;;;;5115712;28;20531;-65
2021/06/25 01:11:35;;;;;;;24.03;20.73;;;;;;;;;;5115069;28;20530;-65
2021/06/25 01:14:03;;;;;;;26.27;21.00;;;;;;;;;;5114629;28;20439;-66
2021/06/25 01:16:30;;;;;;;23.37;20.87;;;;;;;;;;5114818;28;20546;-65
2021/06/25 01:18:57;;;;;;;24.23;21.70;;;;;;;;;;5114619;28;20904;-64
2021/06/25 01:21:26;;;;;;;23.40;20.70;;;;;;;;;;5114883;28;20439;-64
2021/06/25 01:23:53;;;;;;;22.83;20.03;;;;;;;;;;5114758;28;20439;-65
2021/06/25 01:26:20;;;;;;;24.13;21.33;;;;;;;;;;5114449;28;20451;-65
2021/06/25 01:28:47;;;;;;;27.63;20.40;;;;;;;;;;5114589;28;20442;-65
2021/06/25 01:31:15;;;;;;;21.93;19.30;;;;;;;;;;5114337;28;20447;-65
2021/06/25 01:33:42;;;;;;;22.80;20.30;;;;;;;;;;5114313;28;20434;-65
2021/06/25 01:36:09;;;;;;;23.70;21.27;;;;;;;;;;5114288;28;20936;-64
2021/06/25 01:38:38;;;;;;;23.67;20.70;;;;;;;;;;5114580;28;20463;-64
2021/06/25 01:41:05;;;;;;;23.13;20.77;;;;;;;;;;5114207;28;20450;-65
2021/06/25 01:43:34;;;;;;;23.47;20.10;;;;;;;;;;5114203;28;20438;-65
2021/06/25 01:46:01;;;;;;;26.47;21.10;;;;;;;;;;5114474;28;20440;-65
2021/06/25 01:48:28;;;;;;;22.20;19.87;;;;;;;;;;5114446;28;20453;-65
2021/06/25 01:50:55;;;;;;;23.17;20.90;;;;;;;;;;5113982;28;20475;-65
2021/06/25 01:53:24;;;;;;;27.63;21.97;;;;;;;;;;5114356;28;20538;-65
2021/06/25 01:55:52;;;;;;;23.80;20.77;;;;;;;;;;5114566;28;20442;-65
2021/06/25 01:58:21;;;;;;;21.47;19.30;;;;;;;;;;5114315;28;20790;-64
2021/06/25 02:00:50;;;;;;;23.53;21.10;;;;;;;;;;5114249;28;20439;-65
2021/06/25 02:03:17;;;;;;;22.47;20.27;;;;;;;;;;5113884;28;20453;-65
2021/06/25 02:05:45;;;;;;;22.83;20.53;;;;;;;;;;5114322;28;20792;-64
2021/06/25 02:08:12;;;;;;;30.67;19.57;;;;;;;;;;5114178;28;20439;-64
2021/06/25 02:10:39;;;;;;;22.23;19.90;;;;;;;;;;5114067;28;20474;-64
2021/06/25 02:13:08;;;;;;;29.73;23.63;;;;;;;;;;5113791;28;20435;-64
2021/06/25 02:15:35;;;;;;;22.50;20.30;;;;;;;;;;5114125;28;20525;-64
2021/06/25 02:18:02;;;;;;;22.07;19.77;;;;;;;;;;5114217;28;20963;-65
2021/06/25 02:20:29;;;;;;;24.63;19.87;;;;;;;;;;5114105;28;20788;-65
2021/06/25 02:22:57;;;;;;;22.23;19.80;;;;;;;;;;5114024;28;20779;-65
2021/06/25 02:25:24;;;;;;;23.00;20.40;;;;;;;;;;5114243;28;20443;-65
2021/06/25 02:27:51;;;;;;;30.40;20.23;;;;;;;;;;5113724;28;20529;-64
2021/06/25 02:30:20;;;;;;;23.07;20.00;;;;;;;;;;5114291;28;20832;-65
2021/06/25 02:32:47;;;;;;;24.27;20.23;;;;;;;;;;5113921;28;20442;-65
2021/06/25 02:35:15;;;;;;;23.93;21.00;;;;;;;;;;5114135;28;20942;-65
2021/06/25 02:37:42;;;;;;;25.30;22.00;;;;;;;;;;5113553;28;20525;-65
2021/06/25 02:40:10;;;;;;;23.53;20.10;;;;;;;;;;5113580;28;20959;-65
2021/06/25 02:42:38;;;;;;;22.67;20.27;;;;;;;;;;5113523;28;20518;-64
2021/06/25 02:45:05;;;;;;;24.93;20.27;;;;;;;;;;5113476;28;20936;-64
2021/06/25 02:47:34;;;;;;;25.33;21.30;;;;;;;;;;5113958;28;20450;-65
2021/06/25 02:50:01;;;;;;;22.47;20.20;;;;;;;;;;5113698;28;20471;-64
2021/06/25 02:52:28;;;;;;;25.90;21.70;;;;;;;;;;5114200;28;20435;-65
2021/06/25 02:54:55;;;;;;;22.33;20.03;;;;;;;;;;5115710;28;20442;-64
2021/06/25 02:57:23;;;;;;;26.60;22.67;;;;;;;;;;5117986;28;20449;-65
2021/06/25 02:59:50;;;;;;;31.40;23.37;;;;;;;;;;5117686;28;20529;-67
2021/06/25 03:02:17;;;;;;;25.03;21.77;;;;;;;;;;5117261;28;20445;-65
2021/06/25 03:04:46;;;;;;;24.27;21.80;;;;;;;;;;5117561;28;20485;-64
2021/06/25 03:07:13;;;;;;;24.10;21.27;;;;;;;;;;5117143;28;20443;-65
2021/06/25 03:09:40;;;;;;;23.23;20.33;;;;;;;;;;5118282;28;20800;-65
2021/06/25 03:12:08;;;;;;;23.00;20.73;;;;;;;;;;5117173;28;20445;-65
2021/06/25 03:14:41;;;;;;;26.13;21.00;;;;;;;;;;5117378;28;20439;-65
2021/06/25 03:17:09;;;;;;;23.50;21.10;;;;;;;;;;5117635;28;20490;-65
2021/06/25 03:19:36;;;;;;;22.90;20.30;;;;;;;;;;5117263;28;20434;-65
2021/06/25 03:22:05;;;;;;;23.50;21.00;;;;;;;;;;5117867;28;20438;-65
2021/06/25 03:24:32;;;;;;;27.70;22.20;;;;;;;;;;5117128;28;20450;-65
2021/06/25 03:27:00;;;;;;;25.50;22.80;;;;;;;;;;5117131;28;20528;-64
2021/06/25 03:29:27;;;;;;;25.63;22.47;;;;;;;;;;5117001;28;20531;-64
2021/06/25 03:31:54;;;;;;;27.20;21.13;;;;;;;;;;5116971;28;20453;-64
2021/06/25 03:34:21;;;;;;;27.57;23.47;;;;;;;;;;5116981;28;20461;-64
2021/06/25 03:36:48;;;;;;;26.80;23.90;;;;;;;;;;5117771;28;20428;-64
2021/06/25 03:39:17;;;;;;;24.67;22.17;;;;;;;;;;5116949;28;20442;-65
2021/06/25 03:41:44;;;;;;;28.10;23.50;;;;;;;;;;5116878;28;20447;-64
2021/06/25 03:44:12;;;;;;;28.13;24.00;;;;;;;;;;5117153;28;20439;-64
2021/06/25 03:46:39;;;;;;;29.63;24.03;;;;;;;;;;5116843;28;20543;-65
2021/06/25 03:49:07;;;;;;;28.73;23.90;;;;;;;;;;5117372;28;20445;-64
2021/06/25 03:51:35;;;;;;;31.43;25.80;;;;;;;;;;5117099;28;20481;-64
2021/06/25 03:54:03;;;;;;;27.63;24.63;;;;;;;;;;5116569;28;20446;-65
2021/06/25 03:56:32;;;;;;;27.67;24.27;;;;;;;;;;5116569;28;20789;-65
2021/06/25 03:58:59;;;;;;;30.43;24.43;;;;;;;;;;5116561;28;20431;-64
2021/06/25 04:01:26;;;;;;;29.03;25.87;;;;;;;;;;5116147;28;20483;-64
2021/06/25 04:03:53;;;;;;;30.83;25.93;;;;;;;;;;5116653;28;20521;-65
2021/06/25 04:06:21;;;;;;;30.60;27.20;;;;;;;;;;5115862;28;20443;-64
2021/06/25 04:08:49;;;;;;;30.30;27.00;;;;;;;;;;5116331;28;20442;-64
2021/06/25 04:11:17;;;;;;;32.77;26.93;;;;;;;;;;5116195;28;20877;-64
2021/06/25 04:13:47;;;;;;;35.37;28.80;;;;;;;;;;5116756;28;20496;-64
2021/06/25 04:16:14;;;;;;;29.47;25.67;;;;;;;;;;5115690;28;20454;-64
2021/06/25 04:18:41;;;;;;;33.80;27.50;;;;;;;;;;5116631;28;20530;-64
2021/06/25 04:21:08;;;;;;;35.43;27.50;;;;;;;;;;5116015;28;20525;-65
2021/06/25 04:23:36;;;;;;;35.03;27.37;;;;;;;;;;5115637;28;20942;-65
2021/06/25 04:26:03;;;;;;;31.33;27.50;;;;;;;;;;5115632;28;20933;-64
2021/06/25 04:28:30;;;;;;;33.67;27.83;;;;;;;;;;5116065;28;20437;-65
2021/06/25 04:30:59;;;;;;;36.57;29.03;;;;;;;;;;5117619;27;20469;-65
2021/06/25 04:33:26;;;;;;;32.17;27.57;;;;;;;;;;5123485;27;20463;-65
2021/06/25 04:35:54;;;;;;;34.27;27.27;;;;;;;;;;5136039;27;20439;-65
2021/06/25 04:38:21;;;;;;;42.27;28.57;;;;;;;;;;5136237;27;20445;-65
2021/06/25 04:40:49;;;;;;;37.10;28.80;;;;;;;;;;5136203;27;20465;-64
2021/06/25 04:43:16;;;;;;;38.33;29.50;;;;;;;;;;5135852;27;20942;-64
2021/06/25 04:45:44;;;;;;;34.00;29.90;;;;;;;;;;5135949;27;20531;-64
2021/06/25 04:48:14;;;;;;;34.33;29.70;;;;;;;;;;5135730;27;20430;-64
2021/06/25 04:50:42;;;;;;;37.10;30.70;;;;;;;;;;5135905;27;20495;-65
2021/06/25 04:53:09;;;;;;;36.10;32.00;;;;;;;;;;5135930;27;20523;-65
2021/06/25 04:55:41;;;;;;;41.00;31.63;;;;;;;;;;5135903;27;20442;-64
2021/06/25 04:58:09;;;;;;;38.37;32.03;;;;;;;;;;5136395;27;20501;-64
2021/06/25 05:00:37;;;;;;;38.23;31.33;;;;;;;;;;5135898;27;20811;-64
2021/06/25 05:03:05;;;;;;;38.00;30.10;;;;;;;;;;5114983;27;20939;-64
2021/06/25 05:05:34;;;;;;;38.90;30.50;;;;;;;;;;5115257;28;20534;-64
2021/06/25 05:08:01;;;;;;;35.67;30.10;;;;;;;;;;5115009;28;20522;-65
2021/06/25 05:10:28;;;;;;;36.23;28.80;;;;;;;;;;5114703;28;20582;-64
2021/06/25 05:12:55;;;;;;;35.87;31.53;;;;;;;;;;5114941;28;20458;-64
2021/06/25 05:15:23;;;;;;;34.47;28.43;;;;;;;;;;5114868;28;20526;-65
2021/06/25 05:17:51;;;;;;;36.20;29.47;;;;;;;;;;5114781;28;20784;-66
2021/06/25 05:20:18;;;;;;;33.13;29.53;;;;;;;;;;5114666;28;20439;-66
2021/06/25 05:22:47;;;;;;;34.97;28.30;;;;;;;;;;5115263;28;20436;-64
2021/06/25 05:25:14;;;;;;;33.07;27.03;;;;;;;;;;5114469;28;20983;-65
2021/06/25 05:27:42;;;;;;;42.37;34.00;;;;;;;;;;5114445;28;20442;-65
2021/06/25 05:30:10;;;;;;;40.97;27.97;;;;;;;;;;5114599;28;20448;-65
2021/06/25 05:32:38;;;;;;;39.00;27.00;;;;;;;;;;5114928;28;20445;-65
2021/06/25 05:35:05;;;;;;;36.90;27.40;;;;;;;;;;5114918;28;20439;-65
2021/06/25 05:37:32;;;;;;;33.93;27.03;;;;;;;;;;5114194;28;20434;-65
2021/06/25 05:40:01;;;;;;;34.20;27.03;;;;;;;;;;5114297;28;20959;-65
2021/06/25 05:42:28;;;;;;;31.80;26.50;;;;;;;;;;5114065;28;21039;-65
2021/06/25 05:44:55;;;;;;;30.23;24.43;;;;;;;;;;5114335;28;20521;-66
2021/06/25 05:47:23;;;;;;;27.30;23.87;;;;;;;;;;5114196;28;20452;-66
2021/06/25 05:49:50;;;;;;;27.57;23.60;;;;;;;;;;5113924;28;20440;-66
2021/06/25 05:52:17;;;;;;;26.33;22.80;;;;;;;;;;5113858;28;20471;-66
2021/06/25 05:54:44;;;;;;;28.70;23.13;;;;;;;;;;5114093;28;20446;-65
2021/06/25 05:57:13;;;;;;;23.87;21.43;;;;;;;;;;5113787;28;20538;-65
2021/06/25 05:59:40;;;;;;;24.60;21.60;;;;;;;;;;5114576;28;20446;-65
2021/06/25 06:02:08;;;;;;;29.40;20.30;;;;;;;;;;5114063;28;20446;-66
2021/06/25 06:04:35;;;;;;;21.33;17.07;;;;;;;;;;5113695;28;20440;-66
2021/06/25 06:07:03;;;;;;;19.73;15.60;;;;;;;;;;5113672;28;20523;-65
2021/06/25 06:09:30;;;;;;;21.63;15.40;;;;;;;;;;5113915;28;20619;-65
2021/06/25 06:11:57;;;;;;;16.97;14.70;;;;;;;;;;5113522;28;20478;-66
2021/06/25 06:14:26;;;;;;;17.80;13.40;;;;;;;;;;5113875;28;20885;-66
2021/06/25 06:16:53;;;;;;;12.23;11.00;;;;;;;;;;5113905;28;20477;-66
2021/06/25 06:19:20;;;;;;;12.50;11.40;;;;;;;;;;5114123;28;20489;-65
2021/06/25 06:32:57;;;;;;;8.30;7.37;;;;;;;;;;5117967;28;20395;-65
2021/06/25 06:35:24;;;;;;;10.70;9.60;;;;;;;;;;5117712;28;20533;-66
2021/06/25 06:37:52;;;;;;;12.40;7.80;;;;;;;;;;5117933;28;20527;-67
2021/06/25 06:40:20;;;;;;;10.70;7.40;;;;;;;;;;5117504;28;20482;-66
2021/06/25 06:42:48;;;;;;;9.97;8.20;;;;;;;;;;5117482;28;20434;-65
2021/06/25 06:45:17;;;;;;;10.17;7.80;;;;;;;;;;5117711;28;20543;-66
2021/06/25 06:47:44;;;;;;;14.60;8.40;;;;;;;;;;5118147;28;20975;-66
2021/06/25 06:50:12;;;;;;;8.73;7.93;;;;;;;;;;5117387;28;20442;-66
2021/06/25 06:52:42;;;;;;;13.40;11.60;;;;;;;;;;5117148;28;20561;-65
2021/06/25 06:55:11;;;;;;;14.03;7.80;;;;;;;;;;5117608;28;20436;-65
2021/06/25 06:57:38;;;;;;;10.67;7.97;;;;;;;;;;5117195;28;20478;-65
2021/06/25 07:00:06;;;;;;;12.87;9.23;;;;;;;;;;5117119;28;20974;-66
2021/06/25 07:02:35;;;;;;;9.43;7.43;;;;;;;;;;5117312;28;20487;-65
2021/06/25 07:05:02;;;;;;;10.70;9.57;;;;;;;;;;5117497;28;20445;-65
2021/06/25 07:07:29;;;;;;;8.93;8.13;;;;;;;;;;5117649;28;20431;-66
2021/06/25 07:09:56;;;;;;;10.43;8.83;;;;;;;;;;5116927;28;20479;-65
2021/06/25 07:12:24;;;;;;;10.20;9.00;;;;;;;;;;5116817;28;20991;-65
2021/06/25 07:14:51;;;;;;;8.50;7.70;;;;;;;;;;5117151;28;20469;-66
2021/06/25 07:17:18;;;;;;;7.77;7.03;;;;;;;;;;5116606;28;20468;-66
2021/06/25 07:19:48;;;;;;;7.53;6.70;;;;;;;;;;5117105;28;20534;-66
2021/06/25 07:22:16;;;;;;;6.40;5.83;;;;;;;;;;5116816;28;20435;-66
2021/06/25 07:24:43;;;;;;;7.43;5.23;;;;;;;;;;5117040;28;20525;-66
2021/06/25 07:27:10;;;;;;;4.23;3.83;;;;;;;;;;5116660;28;20439;-66
2021/06/25 07:29:37;;;;;;;8.00;5.40;;;;;;;;;;5116879;28;20474;-66
2021/06/25 07:32:05;;;;;;;5.47;5.07;;;;;;;;;;5116513;28;20828;-66
2021/06/25 07:34:32;;;;;;;5.67;4.30;;;;;;;;;;5117251;28;20460;-66
2021/06/25 07:37:01;;;;;;;5.33;4.80;;;;;;;;;;5116823;28;20441;-66
2021/06/25 07:39:29;;;;;;;4.47;4.07;;;;;;;;;;5116302;28;20447;-65
2021/06/25 07:42:02;;;;;;;4.90;4.50;;;;;;;;;;5116746;28;20439;-66
2021/06/25 07:44:30;;;;;;;5.07;4.57;;;;;;;;;;5116928;28;20458;-66
2021/06/25 07:46:58;;;;;;;5.33;4.80;;;;;;;;;;5116892;28;20441;-65
2021/06/25 07:49:25;;;;;;;6.13;5.57;;;;;;;;;;5116180;28;20533;-65
2021/06/25 07:51:52;;;;;;;4.87;4.47;;;;;;;;;;5116035;28;20472;-68
2021/06/25 07:54:21;;;;;;;3.40;3.10;;;;;;;;;;5116150;28;20932;-66
2021/06/25 07:56:48;;;;;;;3.90;3.50;;;;;;;;;;5116103;28;20441;-68
2021/06/25 07:59:15;;;;;;;4.10;3.77;;;;;;;;;;5116042;28;20538;-66
2021/06/25 08:01:42;;;;;;;4.73;4.23;;;;;;;;;;5116802;28;20438;-66
2021/06/25 08:04:10;;;;;;;6.53;3.77;;;;;;;;;;5115876;28;20949;-66
2021/06/25 08:06:37;;;;;;;5.23;4.80;;;;;;;;;;5115883;28;20478;-66
2021/06/25 08:09:07;;;;;;;4.80;3.90;;;;;;;;;;5115745;28;20447;-66
2021/06/25 08:11:35;;;;;;;4.83;4.00;;;;;;;;;;5116699;28;20479;-66
2021/06/25 08:14:03;;;;;;;5.43;4.47;;;;;;;;;;5115736;28;20527;-65
2021/06/25 08:16:30;;;;;;;4.00;3.47;;;;;;;;;;5115631;28;20445;-66
2021/06/25 08:18:58;;;;;;;4.30;3.90;;;;;;;;;;5116568;28;20421;-66
2021/06/25 08:21:25;;;;;;;4.00;3.70;;;;;;;;;;5115852;28;20504;-66
2021/06/25 08:23:53;;;;;;;5.03;4.13;;;;;;;;;;5116080;28;20530;-66
2021/06/25 08:26:20;;;;;;;5.10;4.00;;;;;;;;;;5116181;28;20531;-66
2021/06/25 08:28:49;;;;;;;5.27;4.73;;;;;;;;;;5115758;28;20491;-66
2021/06/25 08:31:16;;;;;;;7.20;4.03;;;;;;;;;;5115308;28;20940;-65
2021/06/25 08:33:44;;;;;;;7.53;5.23;;;;;;;;;;5116147;28;20833;-66
2021/06/25 08:36:11;;;;;;;10.50;5.53;;;;;;;;;;5115280;28;20956;-66
2021/06/25 08:38:38;;;;;;;6.23;5.40;;;;;;;;;;5115607;28;20431;-66
2021/06/25 08:41:06;;;;;;;7.63;5.60;;;;;;;;;;5115785;28;20868;-66
2021/06/25 08:43:33;;;;;;;6.53;5.27;;;;;;;;;;5115163;28;20944;-66
2021/06/25 08:46:02;;;;;;;13.23;5.50;;;;;;;;;;5115325;28;20861;-66
2021/06/25 08:48:30;;;;;;;8.63;6.17;;;;;;;;;;5115345;28;20522;-65
2021/06/25 08:50:58;;;;;;;6.53;5.93;;;;;;;;;;5114833;28;20938;-65
2021/06/25 08:53:25;;;;;;;7.00;5.47;;;;;;;;;;5114452;28;20470;-66
2021/06/25 08:55:52;;;;;;;8.13;3.00;;;;;;;;;;5115292;28;20523;-66
2021/06/25 08:58:20;;;;;;;5.07;4.40;;;;;;;;;;5114886;28;20928;-65
2021/06/25 09:00:48;;;;;;;4.77;3.27;;;;;;;;;;5115135;28;20523;-65
2021/06/25 09:03:21;;;;;;;4.20;3.40;;;;;;;;;;5115431;28;20534;-65
2021/06/25 09:05:48;;;;;;;3.60;3.30;;;;;;;;;;5115548;28;20439;-66
2021/06/25 09:08:25;;;;;;;4.77;4.37;;;;;;;;;;5114908;28;20542;-65
2021/06/25 09:10:54;;;;;;;4.17;3.87;;;;;;;;;;5115186;28;20531;-66
2021/06/25 09:13:30;;;;;;;4.50;4.10;;;;;;;;;;5114801;28;20479;-66
2021/06/25 09:15:58;;;;;;;5.20;4.47;;;;;;;;;;5114453;28;20921;-66
2021/06/25 09:18:27;;;;;;;7.60;5.10;;;;;;;;;;5115420;28;20472;-66
2021/06/25 09:20:54;;;;;;;4.07;3.63;;;;;;;;;;5114392;28;20482;-66
2021/06/25 09:23:27;;;;;;;7.63;5.40;;;;;;;;;;5115292;28;20450;-65
2021/06/25 09:25:56;;;;;;;5.67;4.43;;;;;;;;;;5115201;28;20444;-65
2021/06/25 09:28:24;;;;;;;5.03;4.47;;;;;;;;;;5114597;28;20435;-66
2021/06/25 09:30:51;;;;;;;6.00;5.50;;;;;;;;;;5115108;28;20523;-66
2021/06/25 09:33:18;;;;;;;5.37;4.33;;;;;;;;;;5114485;28;20480;-66
2021/06/25 09:35:51;;;;;;;6.73;4.50;;;;;;;;;;5114820;28;20466;-65
2021/06/25 09:38:31;;;;;;;9.83;6.00;;;;;;;;;;5114551;28;20433;-65
2021/06/25 09:40:58;;;;;;;6.67;5.97;;;;;;;;;;5114145;28;20473;-66
2021/06/25 09:43:32;;;;;;;7.23;6.20;;;;;;;;;;5114385;28;20442;-65
2021/06/25 09:46:02;;;;;;;9.20;5.57;;;;;;;;;;5114404;28;20467;-65
2021/06/25 09:48:49;;;;;;;6.60;5.80;;;;;;;;;;5114507;28;20864;-66
2021/06/25 09:51:17;;;;;;;13.13;6.90;;;;;;;;;;5114226;28;20481;-65
2021/06/25 09:53:59;;;;;;;6.83;6.13;;;;;;;;;;5114076;28;20468;-65
2021/06/25 09:56:27;;;;;;;7.53;6.63;;;;;;;;;;5114047;28;20621;-67
2021/06/25 09:59:21;;;;;;;10.83;6.90;;;;;;;;;;5113791;28;20447;-66
2021/06/25 10:01:47;;;;;;;10.30;7.20;;;;;;;;;;5113821;28;20493;-66
2021/06/25 10:04:14;;;;;;;6.40;5.67;;;;;;;;;;5113869;28;20795;-65
2021/06/25 10:06:43;;;;;;;6.57;5.60;;;;;;;;;;5114499;28;20865;-65
2021/06/25 10:09:10;;;;;;;7.93;6.60;;;;;;;;;;5114376;28;20443;-65
2021/06/25 10:11:37;;;;;;;10.33;7.77;;;;;;;;;;5113731;28;20446;-67
2021/06/25 10:14:06;;;;;;;8.50;7.13;;;;;;;;;;5113546;28;20446;-65
2021/06/25 10:16:33;;;;;;;8.77;7.27;;;;;;;;;;5113627;28;20494;-66
2021/06/25 10:19:00;;;;;;;13.57;7.60;;;;;;;;;;5114168;28;20434;-66
2021/06/25 10:21:29;;;;;;;9.93;6.70;;;;;;;;;;5113781;28;20443;-66
2021/06/25 10:24:00;;;;;;;9.60;8.07;;;;;;;;;;5113458;28;20445;-65
2021/06/25 10:26:28;;;;;;;7.27;6.50;;;;;;;;;;5113489;28;20906;-66
2021/06/25 10:28:56;;;;;;;11.33;8.63;;;;;;;;;;5114277;28;20778;-65
2021/06/25 10:31:25;;;;;;;9.80;8.27;;;;;;;;;;5114113;28;20443;-65
2021/06/25 10:33:53;;;;;;;8.07;7.30;;;;;;;;;;5113292;28;21083;-66
2021/06/25 10:36:22;;;;;;;11.40;8.00;;;;;;;;;;5114313;28;20494;-66
2021/06/25 10:38:50;;;;;;;8.73;7.07;;;;;;;;;;5113729;28;20473;-65
2021/06/25 10:41:20;;;;;;;7.23;6.30;;;;;;;;;;5113390;28;20944;-65
2021/06/25 10:43:49;;;;;;;9.07;6.50;;;;;;;;;;5113353;28;20487;-66
2021/06/25 10:46:33;;;;;;;8.27;6.63;;;;;;;;;;5113444;28;20448;-66
2021/06/25 10:49:02;;;;;;;12.03;7.77;;;;;;;;;;5113546;28;20792;-66
2021/06/25 10:51:31;;;;;;;8.03;7.20;;;;;;;;;;5113544;28;20446;-66
2021/06/25 10:54:18;;;;;;;10.93;7.40;;;;;;;;;;5113363;28;20488;-66
2021/06/25 10:57:04;;;;;;;8.13;7.10;;;;;;;;;;5113103;28;20992;-66
2021/06/25 10:59:32;;;;;;;7.77;6.57;;;;;;;;;;5114352;28;20531;-65
2021/06/25 11:02:00;;;;;;;8.00;6.93;;;;;;;;;;5113013;28;20527;-66
2021/06/25 11:04:42;;;;;;;9.10;8.10;;;;;;;;;;5113092;28;21066;-65
2021/06/25 11:07:11;;;;;;;7.17;6.43;;;;;;;;;;5113719;28;20758;-66
2021/06/25 11:10:03;;;;;;;9.70;7.90;;;;;;;;;;5113328;28;20449;-66
2021/06/25 11:12:33;;;;;;;8.77;7.97;;;;;;;;;;5093729;28;20477;-66
2021/06/25 11:15:24;;;;;;;11.67;10.47;;;;;;;;;;5113398;28;20449;-66
2021/06/25 11:17:52;;;;;;;9.87;8.83;;;;;;;;;;5096565;28;20512;-66
2021/06/25 11:20:25;;;;;;;11.67;9.13;;;;;;;;;;5116588;28;20648;-66
2021/06/25 11:22:53;;;;;;;10.17;8.00;;;;;;;;;;5116912;28;20461;-66
2021/06/25 11:25:34;;;;;;;9.83;8.80;;;;;;;;;;5117134;28;20446;-66
2021/06/25 11:28:16;;;;;;;9.13;8.00;;;;;;;;;;5117249;28;20516;-66
2021/06/25 11:31:10;;;;;;;11.10;9.13;;;;;;;;;;5117431;28;20519;-66
2021/06/25 11:33:39;;;;;;;12.10;9.77;;;;;;;;;;5117140;28;20565;-66
2021/06/25 11:36:20;;;;;;;9.43;8.43;;;;;;;;;;5116813;28;20442;-66
2021/06/25 11:39:01;;;;;;;10.20;9.20;;;;;;;;;;5117300;28;20533;-66
2021/06/25 11:41:29;;;;;;;13.73;10.20;;;;;;;;;;5116956;28;20427;-66
2021/06/25 11:43:59;;;;;;;11.50;10.33;;;;;;;;;;5116799;28;20526;-66
2021/06/25 11:46:27;;;;;;;12.27;9.33;;;;;;;;;;5116428;28;20446;-66
2021/06/25 11:49:00;;;;;;;11.43;9.10;;;;;;;;;;5116510;28;20439;-66
2021/06/25 11:51:34;;;;;;;12.33;10.50;;;;;;;;;;5116521;28;20435;-66
2021/06/25 11:54:02;;;;;;;12.30;11.00;;;;;;;;;;5116409;28;20521;-66
2021/06/25 11:56:29;;;;;;;14.60;12.57;;;;;;;;;;5116673;28;21057;-66
2021/06/25 11:58:59;;;;;;;12.80;11.43;;;;;;;;;;5116284;28;20446;-66
2021/06/25 12:01:26;;;;;;;14.87;12.97;;;;;;;;;;5116634;28;20447;-66
2021/06/25 12:03:54;;;;;;;13.90;11.60;;;;;;;;;;5115848;28;20532;-65
2021/06/25 12:06:21;;;;;;;14.93;13.00;;;;;;;;;;5115885;28;20491;-66
2021/06/25 12:08:52;;;;;;;14.60;13.07;;;;;;;;;;5115846;28;20524;-66
2021/06/25 12:11:20;;;;;;;15.20;13.53;;;;;;;;;;5116054;28;20438;-66
2021/06/25 12:13:47;;;;;;;15.87;12.60;;;;;;;;;;5115989;28;20580;-66
2021/06/25 12:16:15;;;;;;;15.93;14.23;;;;;;;;;;5116414;28;20446;-65
2021/06/25 12:18:44;;;;;;;15.83;14.10;;;;;;;;;;5115712;28;20545;-66
2021/06/25 12:21:12;;;;;;;17.93;15.00;;;;;;;;;;5115895;28;20447;-66
2021/06/25 12:23:40;;;;;;;18.50;16.50;;;;;;;;;;5116306;28;20537;-65
2021/06/25 12:26:13;;;;;;;22.03;15.93;;;;;;;;;;5116078;28;20528;-66
2021/06/25 12:28:41;;;;;;;19.60;17.57;;;;;;;;;;5116067;28;20419;-66
2021/06/25 12:31:12;;;;;;;19.90;17.50;;;;;;;;;;5115516;28;20480;-67
2021/06/25 12:33:40;;;;;;;18.13;15.77;;;;;;;;;;5115660;28;20476;-65
2021/06/25 12:36:08;;;;;;;17.33;15.57;;;;;;;;;;5115762;28;20499;-65
2021/06/25 12:38:35;;;;;;;23.13;15.47;;;;;;;;;;5115266;28;20473;-65
2021/06/25 12:41:03;;;;;;;17.77;15.87;;;;;;;;;;5115460;28;20439;-66
2021/06/25 12:43:31;;;;;;;21.13;15.93;;;;;;;;;;5115399;28;20485;-66
2021/06/25 12:46:00;;;;;;;20.37;16.83;;;;;;;;;;5114884;28;20439;-66
2021/06/25 12:48:28;;;;;;;24.60;18.60;;;;;;;;;;5115380;28;20434;-70
2021/06/25 12:50:57;;;;;;;21.10;17.60;;;;;;;;;;5115010;28;20445;-64
2021/06/25 12:53:28;;;;;;;23.03;19.20;;;;;;;;;;5114948;28;20471;-64
2021/06/25 12:55:56;;;;;;;22.23;19.10;;;;;;;;;;5115033;28;20431;-63
2021/06/25 12:58:24;;;;;;;28.83;19.50;;;;;;;;;;5115161;28;20435;-64
2021/06/25 13:00:58;;;;;;;21.50;19.17;;;;;;;;;;5115249;28;20781;-64
2021/06/25 13:03:26;;;;;;;20.73;18.63;;;;;;;;;;5114872;28;20439;-64
2021/06/25 13:05:53;;;;;;;22.10;19.70;;;;;;;;;;5114704;28;20955;-64
2021/06/25 13:08:25;;;;;;;24.03;17.97;;;;;;;;;;5122578;27;20470;-65
2021/06/25 13:10:53;;;;;;;19.13;16.87;;;;;;;;;;5134930;27;20445;-65
2021/06/25 13:13:21;;;;;;;22.63;18.10;;;;;;;;;;5135147;27;20912;-65
2021/06/25 13:15:49;;;;;;;22.40;20.20;;;;;;;;;;5135224;27;20445;-65
2021/06/25 13:18:20;;;;;;;22.73;18.17;;;;;;;;;;5135246;27;20508;-65
2021/06/25 13:21:06;;;;;;;19.93;18.07;;;;;;;;;;5135495;27;20925;-64
2021/06/25 13:23:34;;;;;;;21.10;18.30;;;;;;;;;;5134846;27;20439;-65
2021/06/25 13:26:06;;;;;;;20.50;16.20;;;;;;;;;;5134881;27;20498;-65
2021/06/25 13:28:33;;;;;;;19.33;16.63;;;;;;;;;;5135590;27;20534;-65
2021/06/25 13:31:04;;;;;;;24.10;15.80;;;;;;;;;;5134772;27;20476;-64
2021/06/25 13:33:40;;;;;;;17.57;15.00;;;;;;;;;;5134638;27;20497;-65
2021/06/25 13:36:09;;;;;;;16.53;14.73;;;;;;;;;;5134773;27;20431;-64
2021/06/25 13:38:44;;;;;;;18.50;15.33;;;;;;;;;;5120490;27;20435;-64
2021/06/25 13:41:20;;;;;;;17.90;15.60;;;;;;;;;;5114780;28;20504;-64
2021/06/25 13:43:50;;;;;;;16.30;14.57;;;;;;;;;;5114490;28;20484;-64
2021/06/25 13:46:21;;;;;;;16.43;14.30;;;;;;;;;;5114477;28;20512;-64
2021/06/25 13:48:49;;;;;;;20.10;15.30;;;;;;;;;;5114575;28;20424;-64
2021/06/25 13:51:16;;;;;;;19.30;15.07;;;;;;;;;;5114750;28;20526;-64
2021/06/25 13:53:46;;;;;;;18.23;16.27;;;;;;;;;;5113867;28;20559;-65
2021/06/25 13:56:13;;;;;;;21.43;18.03;;;;;;;;;;5114191;28;20784;-65
2021/06/25 13:58:57;;;;;;;21.63;16.30;;;;;;;;;;5113979;28;20460;-64
2021/06/25 14:01:25;;;;;;;18.00;16.10;;;;;;;;;;5114161;28;20430;-64
2021/06/25 14:03:57;;;;;;;21.37;17.40;;;;;;;;;;5114094;28;20796;-64
2021/06/25 14:06:24;;;;;;;24.70;17.27;;;;;;;;;;5114089;28;20526;-63
2021/06/25 14:08:53;;;;;;;18.23;16.37;;;;;;;;;;5113526;28;20455;-64
2021/06/25 14:11:21;;;;;;;19.73;16.47;;;;;;;;;;5114066;28;20799;-64
2021/06/25 14:13:50;;;;;;;19.17;16.90;;;;;;;;;;5113561;28;20471;-64
2021/06/25 14:16:19;;;;;;;18.90;15.60;;;;;;;;;;5113334;28;20922;-66
2021/06/25 14:18:46;;;;;;;24.40;17.90;;;;;;;;;;5113961;28;20421;-64
2021/06/25 14:21:14;;;;;;;22.67;16.00;;;;;;;;;;5114050;28;20793;-64
2021/06/25 14:23:41;;;;;;;26.93;16.77;;;;;;;;;;5113514;28;20538;-65
2021/06/25 14:26:10;;;;;;;24.20;18.07;;;;;;;;;;5113808;28;20622;-65
2021/06/25 14:28:37;;;;;;;19.23;17.10;;;;;;;;;;5114050;28;20437;-65
2021/06/25 14:31:04;;;;;;;18.67;16.63;;;;;;;;;;5113704;28;20472;-65
2021/06/25 14:33:31;;;;;;;18.97;16.30;;;;;;;;;;5113712;28;20475;-64
2021/06/25 14:35:59;;;;;;;22.97;17.80;;;;;;;;;;5113302;28;20436;-64
2021/06/25 14:38:26;;;;;;;18.30;16.37;;;;;;;;;;5112995;28;20531;-64
2021/06/25 14:40:54;;;;;;;19.40;17.07;;;;;;;;;;5113341;28;20925;-65
2021/06/25 14:43:23;;;;;;;18.93;15.73;;;;;;;;;;5114197;28;20912;-65
2021/06/25 14:45:51;;;;;;;18.80;15.73;;;;;;;;;;5113205;28;20432;-65